Tuesday, August 21, 2018, 9:55 AM EDT
Back to Local

KVAY, Mt Holly South Jersey Rgnl

Location: Medford, NJ, United States Lat: 39.933
Local Time: 9:55 AM EDT (13:55 GMT) Lon: -74.833
Time Zone: US/Eastern Elev: 52 ft

Show me the last for .
Show Decoded

2018-08-21 08:54 METAR KVAY 211254Z AUTO 10004KT 10SM FEW023 OVC060 22/21 A3008 RMK AO2 SLP185
                 T02170206 =
2018-08-21 07:54 METAR KVAY 211154Z AUTO 08005KT 10SM FEW013 SCT020 OVC060 21/20 A3008 RMK AO2
                 SLP186 T02060200 10206 20189 50003 =
2018-08-21 07:52 METAR KVAY 211152Z AUTO 08005KT 10SM FEW013 BKN020 OVC060 21/20 A3008 RMK AO2 =
2018-08-21 07:14 METAR KVAY 211114Z AUTO 00000KT 10SM BKN012 BKN020 OVC060 20/19 A3008 RMK AO2
                 T02000194 =
2018-08-21 06:54 METAR KVAY 211054Z AUTO 00000KT 10SM OVC060 20/19 A3008 RMK AO2 SLP185 T02000194
                 =
2018-08-21 05:54 METAR KVAY 210954Z AUTO 00000KT 10SM OVC060 19/19 A3007 RMK AO2 SLP184 T01940194
                 =
2018-08-21 05:16 METAR KVAY 210916Z AUTO 00000KT 10SM SCT023 OVC060 19/19 A3008 RMK AO2 T01940194
                 =
2018-08-21 04:54 METAR KVAY 210854Z AUTO 00000KT 10SM FEW018 OVC024 19/19 A3009 RMK AO2 SLP187
                 T01940189 56010 =
2018-08-21 04:42 METAR KVAY 210842Z AUTO 00000KT 10SM FEW018 BKN024 19/19 A3009 RMK AO2 T01940194
                 =
2018-08-21 03:54 METAR KVAY 210754Z AUTO 00000KT 10SM OVC050 19/19 A3009 RMK AO2 SLP189 T01940194
                 =
2018-08-21 02:54 METAR KVAY 210654Z AUTO 00000KT 10SM OVC049 19/19 A3010 RMK AO2 SLP193 T01940189
                 =
2018-08-21 00:54 METAR KVAY 210454Z AUTO 00000KT 10SM FEW055 18/18 A3014 RMK AO2 SLP205 T01780178
                 402440178 TSNO =
2018-08-20 23:54 METAR KVAY 210354Z AUTO 00000KT 9SM CLR 18/18 A3014 RMK AO2 SLP205 T01780178 =
2018-08-20 22:54 METAR KVAY 210254Z AUTO 00000KT 10SM CLR 19/19 A3014 RMK AO2 SLP204 T01890189
                 51010 =
2018-08-20 21:54 METAR KVAY 210154Z AUTO 00000KT 10SM CLR 19/19 A3013 RMK AO2 SLP204 T01940189 =
2018-08-20 20:54 METAR KVAY 210054Z AUTO 00000KT 10SM CLR 20/19 A3012 RMK AO2 SLP199 T02000189 =
2018-08-20 19:54 METAR KVAY 202354Z AUTO 00000KT 10SM CLR 21/19 A3011 RMK AO2 SLP194 T02110189
                 10244 20211 53001 =
2018-08-20 18:54 METAR KVAY 202254Z AUTO 12004KT 10SM FEW021 OVC043 23/19 A3010 RMK AO2 SLP193
                 T02280194 =
2018-08-20 17:54 METAR KVAY 202154Z AUTO 11004KT 10SM OVC044 23/19 A3010 RMK AO2 SLP191 T02330194
                 =
2018-08-20 16:54 METAR KVAY 202054Z AUTO VRB03KT 10SM OVC038 23/19 A3010 RMK AO2 SLP193 T02330194
                 56007 =
2018-08-20 15:54 METAR KVAY 201954Z AUTO VRB05KT 10SM FEW026 SCT032 BKN040 24/19 A3011 RMK AO2
                 SLP194 T02440194 =
2018-08-20 14:54 METAR KVAY 201854Z AUTO 13005KT 10SM OVC042 24/19 A3012 RMK AO2 SLP199 T02390194
                 =
2018-08-20 13:54 METAR KVAY 201754Z AUTO 08003KT 10SM OVC044 24/19 A3012 RMK AO2 SLP200 T02390189
                 10239 20194 53000 =
2018-08-20 12:54 METAR KVAY 201654Z AUTO 00000KT 10SM OVC040 24/18 A3012 RMK AO2 SLP199 T02390183
                 =
2018-08-20 12:12 METAR KVAY 201612Z AUTO 08004KT 10SM SCT024 SCT030 OVC040 23/18 A3013 RMK AO2
                 T02330183 =
2018-08-20 11:54 METAR KVAY 201554Z AUTO VRB03KT 10SM BKN026 BKN032 OVC040 23/19 A3012 RMK AO2
                 SLP200 T02330189 =
2018-08-20 11:49 METAR KVAY 201549Z AUTO 00000KT 10SM SCT022 BKN032 OVC040 24/19 A3012 RMK AO2 =
2018-08-20 11:04 METAR KVAY 201504Z AUTO 00000KT 10SM BKN020 BKN026 OVC075 23/19 A3013 RMK AO2
                 T02280189 $ =
2018-08-20 10:54 METAR KVAY 201454Z AUTO 06005KT 10SM 23/19 A3012 RMK AO2 SLP199 T02280189 $ =

Support USWX by starting your Amazon purchase here.